Time;durP1;ratioP1;P1;durP2;ratioP2;P2;SDS_P1;SDS_P2;PMS_P1;PMS_P2;Temp;Humidity;BMP_temperature;BMP_pressure;BME280_temperature;BME280_humidity;BME280_pressure;Samples;Min_cycle;Max_cycle;Signal;HPM_P1;HPM_P2
2023/09/25 03:02:07;;;;;;;1.23;0.73;;;;;;;;;;6154761;23;20076;-81
2023/09/25 03:26:20;;;;;;;2.35;0.32;;;;;;;;;;6154397;23;20040;-81
2023/09/25 04:14:35;;;;;;;;;;;;;;;;;;;;;
2023/09/25 04:33:14;;;;;;;0.88;0.25;;;;;;;;;;5977009;24;20502;-82
2023/09/25 04:36:04;;;;;;;1.98;0.40;;;;;;;;;;5922778;24;20021;-81
2023/09/25 04:38:41;;;;;;;3.30;0.60;;;;;;;;;;5949450;24;20657;-81
2023/09/25 04:41:47;;;;;;;1.48;0.45;;;;;;;;;;5935605;24;20044;-81
2023/09/25 04:59:27;;;;;;;0.70;0.20;;;;;;;;;;6210055;23;20084;-81
2023/09/25 05:01:56;;;;;;;7.13;0.88;;;;;;;;;;6152605;23;20017;-81
2023/09/25 05:04:28;;;;;;;1.40;0.40;;;;;;;;;;6141446;23;20166;-81
2023/09/25 05:12:57;;;;;;;2.75;0.40;;;;;;;;;;6136431;23;20034;-83
2023/09/25 05:15:24;;;;;;;2.55;0.50;;;;;;;;;;6158926;23;20341;-83
2023/09/25 05:17:53;;;;;;;1.95;0.35;;;;;;;;;;6161145;23;20013;-85
2023/09/25 05:20:22;;;;;;;1.70;0.50;;;;;;;;;;6160827;23;20001;-84
2023/09/25 05:22:51;;;;;;;2.10;0.57;;;;;;;;;;6161292;23;20021;-84
2023/09/25 05:25:18;;;;;;;3.65;0.50;;;;;;;;;;6189324;23;20005;-85
2023/09/25 05:27:45;;;;;;;3.25;0.38;;;;;;;;;;6163942;23;20027;-86
2023/09/25 05:30:12;;;;;;;7.63;0.57;;;;;;;;;;6164397;23;20009;-85
2023/09/25 05:32:38;;;;;;;5.05;0.77;;;;;;;;;;6168486;23;20037;-84
2023/09/25 05:35:04;;;;;;;3.35;0.60;;;;;;;;;;6169928;23;20016;-84
2023/09/25 05:37:31;;;;;;;3.97;0.50;;;;;;;;;;6162039;23;20009;-85
2023/09/25 05:39:57;;;;;;;4.00;0.90;;;;;;;;;;6162743;23;20013;-86
2023/09/25 05:42:23;;;;;;;3.63;0.95;;;;;;;;;;6162437;23;20047;-88
2023/09/25 05:47:25;;;;;;;2.63;0.80;;;;;;;;;;6186571;23;20099;-82
2023/09/25 05:49:51;;;;;;;0.88;0.40;;;;;;;;;;6187850;23;20436;-84
2023/09/25 05:52:17;;;;;;;5.00;2.00;;;;;;;;;;6161218;23;20337;-85
2023/09/25 05:54:43;;;;;;;5.28;0.52;;;;;;;;;;6160387;23;20016;-84
2023/09/25 05:57:09;;;;;;;6.75;0.75;;;;;;;;;;6161213;23;20020;-84
2023/09/25 05:59:35;;;;;;;1.90;0.88;;;;;;;;;;6161727;23;20013;-85
2023/09/25 06:02:02;;;;;;;2.65;0.60;;;;;;;;;;6187872;23;20012;-86
2023/09/25 06:04:28;;;;;;;5.13;0.70;;;;;;;;;;6161481;23;20009;-85
2023/09/25 06:06:55;;;;;;;3.00;0.47;;;;;;;;;;6161147;23;20049;-85
2023/09/25 06:09:21;;;;;;;4.18;0.50;;;;;;;;;;6161066;23;20518;-84
2023/09/25 06:11:48;;;;;;;1.35;0.35;;;;;;;;;;6161280;23;20032;-86
2023/09/25 06:27:27;;;;;;;2.22;0.63;;;;;;;;;;6188193;23;20459;-86
2023/09/25 06:30:36;;;;;;;;;;;;;;;;;;;;;
2023/09/25 07:20:27;;;;;;;2.05;0.50;;;;;;;;;;6164170;23;20036;-85
2023/09/25 07:32:38;;;;;;;1.13;0.50;;;;;;;;;;6198478;23;20028;-86
2023/09/25 07:35:10;;;;;;;1.80;0.40;;;;;;;;;;6167136;23;20033;-86
2023/09/25 10:57:24;;;;;;;3.45;0.75;;;;;;;;;;6125909;23;20022;-86
2023/09/25 11:00:17;;;;;;;1.92;0.75;;;;;;;;;;6112750;23;20017;-87
2023/09/25 11:02:54;;;;;;;4.60;1.27;;;;;;;;;;6106845;23;20342;-88
2023/09/25 11:05:30;;;;;;;1.90;0.47;;;;;;;;;;6130637;23;20081;-87
2023/09/25 11:08:03;;;;;;;3.10;0.98;;;;;;;;;;6130158;23;20021;-85
2023/09/25 11:10:48;;;;;;;2.92;0.45;;;;;;;;;;6129841;23;20009;-85
2023/09/25 11:13:14;;;;;;;2.35;0.47;;;;;;;;;;6128729;23;20010;-87
2023/09/25 11:15:46;;;;;;;1.67;0.60;;;;;;;;;;6113232;23;20014;-87
2023/09/25 11:18:35;;;;;;;5.05;0.50;;;;;;;;;;6119984;23;20015;-86
2023/09/25 11:27:17;;;;;;;2.15;0.45;;;;;;;;;;6092897;23;20010;-87
2023/09/25 11:29:52;;;;;;;3.33;1.30;;;;;;;;;;6081517;23;20010;-87
2023/09/25 11:32:18;;;;;;;1.90;0.50;;;;;;;;;;6068592;23;20006;-86
2023/09/25 11:34:44;;;;;;;1.80;0.65;;;;;;;;;;6063130;23;20010;-87
2023/09/25 11:37:37;;;;;;;2.20;0.43;;;;;;;;;;6112559;23;20014;-87
2023/09/25 11:40:07;;;;;;;;;;;;;;;;;;6088974;23;20434;-87
2023/09/25 11:42:43;;;;;;;0.85;0.20;;;;;;;;;;6118929;23;19916;-87
2023/09/25 11:45:14;;;;;;;1.58;0.55;;;;;;;;;;6071161;23;20433;-88
2023/09/25 12:31:03;;;;;;;4.15;1.00;;;;;;;;;;6187465;22;20036;-88
2023/09/25 12:39:08;;;;;;;1.35;0.50;;;;;;;;;;6127633;23;20032;-86
2023/09/25 13:59:04;;;;;;;1.70;0.50;;;;;;;;;;6131892;23;20039;-88
2023/09/25 14:01:35;;;;;;;1.15;0.30;;;;;;;;;;6091682;23;20011;-88
2023/09/25 14:04:10;;;;;;;2.45;0.40;;;;;;;;;;6090932;23;20006;-89
2023/09/25 14:09:43;;;;;;;4.40;0.57;;;;;;;;;;6151569;23;19920;-90
2023/09/25 14:12:09;;;;;;;2.35;0.68;;;;;;;;;;6155782;23;20009;-91
2023/09/25 14:14:54;;;;;;;1.27;0.30;;;;;;;;;;6157982;23;20032;-90
2023/09/25 14:17:22;;;;;;;2.53;0.77;;;;;;;;;;6159256;23;20009;-91
2023/09/25 14:19:48;;;;;;;0.90;0.40;;;;;;;;;;6155848;23;20012;-91
2023/09/25 14:22:15;;;;;;;2.97;0.47;;;;;;;;;;6156405;23;20008;-90
2023/09/25 14:27:54;;;;;;;2.25;0.60;;;;;;;;;;6090806;23;20111;-91
2023/09/25 14:30:22;;;;;;;1.80;0.40;;;;;;;;;;6155039;23;20013;-92
2023/09/25 14:32:56;;;;;;;3.10;0.30;;;;;;;;;;6156840;23;20024;-92
2023/09/25 14:35:27;;;;;;;7.55;1.10;;;;;;;;;;6156915;23;20258;-90
2023/09/25 14:43:55;;;;;;;1.98;0.80;;;;;;;;;;6159860;23;20471;-88
2023/09/25 15:36:20;;;;;;;1.00;0.50;;;;;;;;;;6092911;23;19926;-89
2023/09/25 19:14:34;;;;;;;4.20;0.70;;;;;;;;;;6178622;23;20422;-86
